Track Сафронова Анна

Time Latitude Longitude Accuracy (66% radius in meters) Altitude (meters) Speed (km/hour) Bearing (degrees) Battery (%) GPS flag
10:52:47 51.810976 39.391104 5 113 0 57.116149902344 54 1 delete
10:52:35 51.810976 39.391104 5 109 0 57.116149902344 54 1 delete
10:52:23 51.810976 39.391104 5 108 0 57.116149902344 54 1 delete
10:52:11 51.810976 39.391104 5 114 0 57.116149902344 54 1 delete
10:51:59 51.810976 39.391104 5 115 0 57.116149902344 54 1 delete
10:51:48 51.810976 39.391104 5 119 0 57.116149902344 54 1 delete
10:51:36 51.810976 39.391104 5 114 0 57.116149902344 54 1 delete
10:51:25 51.810976 39.391104 5 119 0 57.116149902344 54 1 delete
10:51:13 51.810976 39.391104 5 119 0 57.116149902344 54 1 delete
10:51:01 51.810976 39.391104 5 118 0 57.116149902344 54 1 delete
10:50:49 51.810976 39.391104 5 122 0 57.116149902344 58 1 delete
10:50:36 51.810976 39.391104 5 123 0 57.116149902344 58 1 delete
10:50:24 51.810976 39.391104 5 122 0 57.116149902344 58 1 delete
10:50:13 51.810976 39.391104 5 120 0 57.116149902344 58 1 delete
10:50:01 51.810976 39.391104 5 117 0 57.116149902344 58 1 delete
10:49:49 51.810976 39.391104 5 127 0 57.116149902344 58 1 delete
10:49:37 51.810976 39.391104 5 126 0 57.116149902344 58 1 delete
10:49:25 51.810976 39.391104 5 127 0 57.116149902344 58 1 delete
10:49:13 51.810976 39.391104 5 127 0 57.116149902344 58 1 delete
10:49:02 51.810976 39.391104 5 124 0 57.116149902344 58 1 delete
10:48:50 51.810976 39.391104 5 119 0 57.116149902344 58 1 delete
10:48:39 51.810976 39.391104 5 118 0 57.116149902344 58 1 delete
10:48:27 51.810976 39.391104 5 117 0 57.116149902344 58 1 delete
10:48:14 51.810976 39.391104 5 117 0 57.116149902344 58 1 delete
10:21:25 51.810957 39.391079 5 119 0 220.14468383789 58 1 delete
10:00:21 51.810942 39.391144 10 115 0 193.7085723877 63 1 delete
10:00:09 51.810942 39.391144 5 112 0 193.7085723877 63 1 delete
09:59:55 51.810942 39.391150 5 117 0 193.7085723877 63 1 delete
09:59:41 51.810944 39.391156 10 111 0 17.129413604736 63 1 delete
09:59:30 51.810944 39.391156 5 120 0 17.129413604736 63 1 delete
09:59:15 51.810944 39.391156 10 130 0 17.129413604736 63 1 delete
09:59:12 51.810944 39.391156 15 131 0.31785798072815 17.129413604736 63 1 delete
09:59:02 51.810900 39.391142 10 100 0 249.43676757812 63 1 delete
09:58:57 51.810899 39.391142 15 106 0.36115992069244 249.43676757812 63 1 delete
09:58:50 51.810875 39.391185 5 110 0 245.4425201416 63 1 delete
09:58:38 51.810887 39.391212 10 121 0 264.17691040039 63 1 delete
09:58:26 51.810893 39.391228 10 134 0 62.822814941406 63 1 delete
09:58:13 51.810893 39.391228 10 104 0 62.822814941406 63 1 delete
09:58:01 51.810893 39.391228 10 102 0 62.822814941406 63 1 delete
09:57:57 51.810893 39.391228 5 121 0.30676531791687 62.822814941406 63 1 delete
09:57:46 51.810903 39.391189 10 139 0 222.89479064941 63 1 delete
09:57:39 51.810917 39.391160 10 138 0 222.89479064941 63 1 delete
09:57:24 51.810972 39.391124 15 123 0 34.929351806641 63 1 delete
09:57:13 51.810969 39.391122 5 112 0 34.46732711792 63 1 delete
09:57:00 51.810968 39.391121 5 115 0 34.46732711792 63 1 delete
09:56:51 51.810960 39.391122 5 108 0 350.32855224609 63 1 delete
09:56:45 51.810952 39.391127 5 107 0 350.32855224609 63 1 delete
09:56:33 51.810952 39.391127 5 123 0 350.32855224609 63 1 delete
09:56:21 51.810952 39.391127 5 118 0 350.32855224609 63 1 delete
09:56:08 51.810952 39.391127 10 125 0 350.32855224609 63 1 delete